createdAt,value
2022-08-12T00:00:04.166Z,99.90
2022-08-12T00:02:49.779Z,99.90
2022-08-12T00:05:37.674Z,99.90
2022-08-12T00:08:43.719Z,99.90
2022-08-12T00:11:30.568Z,99.90
2022-08-12T00:14:16.430Z,99.90
2022-08-12T00:17:02.260Z,99.90
2022-08-12T00:19:47.919Z,99.90
2022-08-12T00:22:33.592Z,99.90
2022-08-12T00:25:19.522Z,99.90
2022-08-12T00:28:06.303Z,99.90
2022-08-12T00:30:53.275Z,99.90
2022-08-12T00:33:52.370Z,99.90
2022-08-12T00:36:43.926Z,99.90
2022-08-12T00:39:31.184Z,99.90
2022-08-12T00:42:11.067Z,99.90
2022-08-12T00:44:42.386Z,99.90
2022-08-12T00:47:24.114Z,99.90
2022-08-12T00:49:54.144Z,99.90
2022-08-12T00:52:23.230Z,99.90
2022-08-12T00:54:53.095Z,99.90
2022-08-12T00:57:22.938Z,99.90
2022-08-12T00:59:54.366Z,99.90
2022-08-12T01:02:24.738Z,99.90
2022-08-12T01:05:14.433Z,99.90
2022-08-12T01:08:01.374Z,99.90
2022-08-12T01:10:49.737Z,99.90
2022-08-12T01:13:22.078Z,99.90
2022-08-12T01:15:57.115Z,99.90
2022-08-12T01:18:28.204Z,99.90
2022-08-12T01:21:07.580Z,99.90
2022-08-12T01:24:29.892Z,99.90
2022-08-12T01:26:55.689Z,99.90
2022-08-12T01:29:28.465Z,99.90
2022-08-12T01:31:59.135Z,99.90
2022-08-12T01:34:36.625Z,99.90
2022-08-12T01:37:07.423Z,99.90
2022-08-12T01:40:34.311Z,99.90
2022-08-12T01:42:33.997Z,99.90
2022-08-12T01:45:03.895Z,99.90
2022-08-12T01:47:43.046Z,99.90
2022-08-12T01:50:22.246Z,99.90
2022-08-12T01:52:59.036Z,99.90
2022-08-12T01:55:29.757Z,99.90
2022-08-12T01:58:08.888Z,99.90
2022-08-12T02:00:55.330Z,99.90
2022-08-12T02:03:55.309Z,99.90
2022-08-12T02:06:47.450Z,99.90
2022-08-12T02:09:37.446Z,99.90
2022-08-12T02:12:15.402Z,99.90
2022-08-12T02:14:52.514Z,99.90
2022-08-12T02:17:55.652Z,99.90
2022-08-12T02:20:35.106Z,99.90
2022-08-12T02:23:20.370Z,99.90
2022-08-12T02:25:50.967Z,99.90
2022-08-12T02:28:19.298Z,99.90
2022-08-12T02:30:48.793Z,99.90
2022-08-12T02:33:19.041Z,99.90
2022-08-12T02:35:47.354Z,99.90
2022-08-12T02:38:15.441Z,99.90
2022-08-12T02:40:45.619Z,99.90
2022-08-12T02:43:20.465Z,99.90
2022-08-12T02:45:56.165Z,99.90
2022-08-12T02:48:30.180Z,99.90
2022-08-12T02:51:02.540Z,99.90
2022-08-12T02:53:31.820Z,99.90
2022-08-12T02:56:02.669Z,99.90
2022-08-12T02:58:33.347Z,99.90
2022-08-12T03:01:05.743Z,99.90
2022-08-12T03:03:35.295Z,99.90
2022-08-12T03:06:07.089Z,99.90
2022-08-12T03:08:42.150Z,99.90
2022-08-12T03:11:16.187Z,99.90
2022-08-12T03:13:48.423Z,99.90
2022-08-12T03:16:18.337Z,99.90
2022-08-12T03:18:46.759Z,99.90
2022-08-12T03:21:17.554Z,99.90
2022-08-12T03:24:07.191Z,99.90
2022-08-12T03:26:36.829Z,99.90
2022-08-12T03:29:06.795Z,99.90
2022-08-12T03:31:36.142Z,99.90
2022-08-12T03:34:06.734Z,99.90
2022-08-12T03:36:36.599Z,99.90
2022-08-12T03:39:35.841Z,99.90
2022-08-12T03:42:17.877Z,99.90
2022-08-12T03:45:11.782Z,99.90
2022-08-12T03:48:05.285Z,99.90
2022-08-12T03:50:50.682Z,99.90
2022-08-12T03:53:43.073Z,99.90
2022-08-12T03:56:28.556Z,99.90
2022-08-12T03:59:15.923Z,99.90
2022-08-12T04:01:43.984Z,99.90
2022-08-12T04:04:13.240Z,99.90
2022-08-12T04:06:45.823Z,99.90
2022-08-12T04:09:16.394Z,99.90
2022-08-12T04:12:03.813Z,99.90
2022-08-12T04:14:32.946Z,99.90
2022-08-12T04:17:01.849Z,99.90
2022-08-12T04:19:31.983Z,99.90
2022-08-12T04:22:03.330Z,99.90
2022-08-12T04:24:35.447Z,99.90
2022-08-12T04:27:05.327Z,99.90
2022-08-12T04:30:31.171Z,99.90
2022-08-12T04:32:22.207Z,99.90
2022-08-12T04:34:51.852Z,99.90
2022-08-12T04:37:19.831Z,99.90
2022-08-12T04:39:48.121Z,99.90
2022-08-12T04:42:16.194Z,99.90
2022-08-12T04:44:44.337Z,99.90
2022-08-12T04:47:14.062Z,99.90
2022-08-12T04:49:44.579Z,99.90
2022-08-12T04:52:13.916Z,99.90
2022-08-12T04:54:43.735Z,99.90
2022-08-12T04:57:11.589Z,99.90
2022-08-12T04:59:48.468Z,99.90
2022-08-12T05:02:21.413Z,99.90
2022-08-12T05:04:52.022Z,99.90
2022-08-12T05:07:23.915Z,99.90
2022-08-12T05:10:00.481Z,99.90
2022-08-12T05:12:35.739Z,99.90
2022-08-12T05:15:19.067Z,99.90
2022-08-12T05:17:52.849Z,99.90
2022-08-12T05:20:22.555Z,99.90
2022-08-12T05:22:53.090Z,99.90
2022-08-12T05:25:27.011Z,99.90
2022-08-12T05:27:55.344Z,99.90
2022-08-12T05:30:27.278Z,99.90
2022-08-12T05:32:55.715Z,99.90
2022-08-12T05:35:28.081Z,99.90
2022-08-12T05:38:11.239Z,99.90
2022-08-12T05:40:39.067Z,99.90
2022-08-12T05:43:07.003Z,99.90
2022-08-12T05:45:34.975Z,99.90
2022-08-12T05:48:03.447Z,99.90
2022-08-12T05:50:31.299Z,99.90
2022-08-12T05:53:00.450Z,99.90
2022-08-12T05:55:31.681Z,99.90
2022-08-12T05:57:59.637Z,99.90
2022-08-12T06:00:29.390Z,99.90
2022-08-12T06:03:01.138Z,99.90
2022-08-12T06:05:30.104Z,99.90
2022-08-12T06:08:02.018Z,99.90
2022-08-12T06:10:33.052Z,99.90
2022-08-12T06:13:02.379Z,99.90
2022-08-12T06:15:31.507Z,99.90
2022-08-12T06:18:11.392Z,99.90
2022-08-12T06:20:41.398Z,99.90
2022-08-12T06:23:11.558Z,99.90
2022-08-12T06:25:42.273Z,99.90
2022-08-12T06:28:17.148Z,99.90
2022-08-12T06:30:57.292Z,99.90
2022-08-12T06:33:55.294Z,99.90
2022-08-12T06:36:25.037Z,99.90
2022-08-12T06:38:58.401Z,99.90
2022-08-12T06:42:04.832Z,99.90
2022-08-12T06:44:41.369Z,99.90
2022-08-12T06:47:09.265Z,99.90
2022-08-12T06:49:37.071Z,99.90
2022-08-12T06:52:07.304Z,99.90
2022-08-12T06:54:35.423Z,99.90
2022-08-12T06:58:08.146Z,99.90
2022-08-12T06:59:53.283Z,99.90
2022-08-12T07:02:22.715Z,99.90
2022-08-12T07:04:51.583Z,99.90
2022-08-12T07:07:19.826Z,99.90
2022-08-12T07:10:06.819Z,99.90
2022-08-12T07:12:37.438Z,99.90
2022-08-12T07:15:06.142Z,99.90
2022-08-12T07:17:37.224Z,99.90
2022-08-12T07:20:06.648Z,99.90
2022-08-12T07:22:34.592Z,99.90
2022-08-12T07:25:20.311Z,99.90
2022-08-12T07:27:55.106Z,99.90
2022-08-12T07:30:24.272Z,99.90
2022-08-12T07:32:52.513Z,99.90
2022-08-12T07:35:21.026Z,99.90
2022-08-12T07:37:50.390Z,99.90
2022-08-12T07:40:18.853Z,99.90
2022-08-12T07:42:46.849Z,99.90
2022-08-12T07:45:16.175Z,99.90
2022-08-12T07:47:44.791Z,99.90
2022-08-12T07:50:14.201Z,99.90
2022-08-12T07:52:44.278Z,99.90
2022-08-12T07:55:12.964Z,99.90
2022-08-12T07:57:52.384Z,99.90
2022-08-12T08:00:21.666Z,99.90
2022-08-12T08:02:50.283Z,99.90
2022-08-12T08:05:19.430Z,99.90
2022-08-12T08:07:47.467Z,99.90
2022-08-12T08:10:16.553Z,99.90
2022-08-12T08:13:04.318Z,99.90
2022-08-12T08:16:01.119Z,99.90
2022-08-12T08:18:26.259Z,99.90
2022-08-12T08:20:55.383Z,99.90
2022-08-12T08:23:34.861Z,99.90
2022-08-12T08:26:03.154Z,99.90
2022-08-12T08:28:36.414Z,99.90
2022-08-12T08:31:05.831Z,99.90
2022-08-12T08:34:04.982Z,99.90
2022-08-12T08:36:23.876Z,99.90
2022-08-12T08:38:57.621Z,99.90
2022-08-12T08:42:15.532Z,99.90
2022-08-12T08:44:31.867Z,99.90
2022-08-12T08:47:01.279Z,99.90
2022-08-12T08:49:29.131Z,99.90
2022-08-12T08:51:57.192Z,99.90
2022-08-12T08:54:25.152Z,99.90
2022-08-12T08:56:53.551Z,99.90
2022-08-12T08:59:22.232Z,99.90
2022-08-12T09:01:50.166Z,99.90
2022-08-12T09:05:11.164Z,99.90
2022-08-12T09:10:02.741Z,99.90
2022-08-12T09:12:54.284Z,99.90
2022-08-12T09:15:35.268Z,99.90
2022-08-12T09:18:05.718Z,99.90
2022-08-12T09:20:39.633Z,99.90
2022-08-12T09:23:59.028Z,99.90
2022-08-12T09:26:04.581Z,99.90
2022-08-12T09:32:03.990Z,99.90
2022-08-12T09:34:28.906Z,99.90
2022-08-12T09:37:00.693Z,99.90
2022-08-12T09:40:05.626Z,99.90
2022-08-12T09:42:45.708Z,99.90
2022-08-12T09:46:07.122Z,99.90
2022-08-12T09:48:20.503Z,99.90
2022-08-12T09:50:51.778Z,99.90
2022-08-12T09:53:29.172Z,99.90
2022-08-12T09:56:41.048Z,99.90
2022-08-12T09:59:00.062Z,99.90
2022-08-12T10:01:35.739Z,99.90
2022-08-12T10:04:19.102Z,99.90
2022-08-12T10:06:54.897Z,99.90
2022-08-12T10:09:28.813Z,99.90
2022-08-12T10:12:33.338Z,99.90
2022-08-12T10:15:01.583Z,99.90
2022-08-12T10:17:29.661Z,99.90
2022-08-12T10:19:59.695Z,99.90
2022-08-12T10:22:38.796Z,99.90
2022-08-12T10:26:33.847Z,99.90
2022-08-12T10:28:35.737Z,99.90
2022-08-12T10:31:05.103Z,99.90
2022-08-12T10:33:34.458Z,99.90
2022-08-12T10:36:36.222Z,99.90
2022-08-12T10:40:01.075Z,99.90
2022-08-12T10:42:16.962Z,99.90
2022-08-12T10:45:00.780Z,99.90
2022-08-12T10:48:07.181Z,99.90
2022-08-12T10:50:23.780Z,99.90
2022-08-12T10:53:01.671Z,99.90
2022-08-12T10:55:29.476Z,99.70
2022-08-12T10:58:15.210Z,99.90
2022-08-12T11:01:25.629Z,99.90
2022-08-12T11:04:24.252Z,99.30
2022-08-12T11:07:07.910Z,99.70
2022-08-12T11:09:12.891Z,98.60
2022-08-12T11:12:35.094Z,99.90
2022-08-12T11:14:50.415Z,98.20
2022-08-12T11:17:43.652Z,98.30
2022-08-12T11:20:08.784Z,96.70
2022-08-12T11:22:43.027Z,96.10
2022-08-12T11:25:56.848Z,95.80
2022-08-12T11:28:14.888Z,95.60
2022-08-12T11:30:46.102Z,95.80
2022-08-12T11:33:24.059Z,95.50
2022-08-12T11:36:16.116Z,94.70
2022-08-12T11:38:50.366Z,97.40
2022-08-12T11:41:28.074Z,94.00
2022-08-12T11:44:02.032Z,94.10
2022-08-12T11:46:51.339Z,93.70
2022-08-12T11:49:31.180Z,93.10
2022-08-12T11:52:01.691Z,93.60
2022-08-12T11:54:30.231Z,92.80
2022-08-12T11:56:59.468Z,92.80
2022-08-12T12:02:20.780Z,92.30
2022-08-12T12:04:52.703Z,93.20
2022-08-12T12:08:36.377Z,93.40
2022-08-12T12:10:12.424Z,92.60
2022-08-12T12:12:41.544Z,90.80
2022-08-12T12:15:24.959Z,91.30
2022-08-12T12:17:55.877Z,92.10
2022-08-12T12:20:26.048Z,91.00
2022-08-12T12:22:55.621Z,91.10
2022-08-12T12:26:07.291Z,90.00
2022-08-12T12:28:36.686Z,91.20
2022-08-12T12:30:59.458Z,91.20
2022-08-12T12:33:46.191Z,91.60
2022-08-12T12:36:24.059Z,93.70
2022-08-12T12:38:58.171Z,92.60
2022-08-12T12:42:41.994Z,91.30
2022-08-12T12:44:25.430Z,92.80
2022-08-12T12:46:58.054Z,91.50
2022-08-12T12:49:27.613Z,91.60
2022-08-12T12:52:18.367Z,92.20
2022-08-12T12:54:52.519Z,92.30
2022-08-12T12:57:21.533Z,91.90
2022-08-12T13:00:17.983Z,91.20
2022-08-12T13:02:52.963Z,92.60
2022-08-12T13:05:27.889Z,91.60
2022-08-12T13:08:00.582Z,91.00
2022-08-12T13:10:36.906Z,90.00
2022-08-12T13:14:08.228Z,90.90
2022-08-12T13:15:59.077Z,91.30
2022-08-12T13:18:36.597Z,91.80
2022-08-12T13:21:23.570Z,91.40
2022-08-12T13:23:57.798Z,92.00
2022-08-12T13:26:25.745Z,91.60
2022-08-12T13:28:56.091Z,92.00
2022-08-12T13:31:25.217Z,91.30
2022-08-12T13:34:33.192Z,91.30
2022-08-12T13:36:45.208Z,90.60
2022-08-12T13:39:16.444Z,91.80
2022-08-12T13:41:44.537Z,91.80
2022-08-12T13:44:12.923Z,90.80
2022-08-12T13:46:42.068Z,90.90
2022-08-12T13:49:17.256Z,90.00
2022-08-12T13:51:53.675Z,90.60
2022-08-12T13:54:22.079Z,90.10
2022-08-12T13:56:51.498Z,90.40
2022-08-12T13:59:24.566Z,90.10
2022-08-12T14:01:54.335Z,90.70
2022-08-12T14:04:24.871Z,89.90
2022-08-12T14:06:54.128Z,87.60
2022-08-12T14:09:21.945Z,87.80
2022-08-12T14:11:59.632Z,89.00
2022-08-12T14:14:31.539Z,87.00
2022-08-12T14:17:09.876Z,86.10
2022-08-12T14:19:48.562Z,88.00
2022-08-12T14:22:26.108Z,85.80
2022-08-12T14:24:54.518Z,86.20
2022-08-12T14:28:04.184Z,86.10
2022-08-12T14:30:15.692Z,87.20
2022-08-12T14:32:51.689Z,89.20
2022-08-12T14:35:21.675Z,88.70
2022-08-12T14:37:58.009Z,88.20
2022-08-12T14:40:28.501Z,89.30
2022-08-12T14:42:57.863Z,88.60
2022-08-12T14:45:45.326Z,89.20
2022-08-12T14:48:15.277Z,90.60
2022-08-12T14:51:09.797Z,88.90
2022-08-12T14:59:58.162Z,87.60
2022-08-12T15:02:19.526Z,88.30
2022-08-12T15:04:50.246Z,87.30
2022-08-12T15:07:33.786Z,87.60
2022-08-12T15:10:09.229Z,88.00
2022-08-12T15:12:40.482Z,87.00
2022-08-12T15:15:10.535Z,86.20
2022-08-12T15:17:39.229Z,85.00
2022-08-12T15:20:31.671Z,89.00
2022-08-12T15:22:56.587Z,86.80
2022-08-12T15:25:27.658Z,87.40
2022-08-12T15:28:05.882Z,87.70
2022-08-12T15:30:37.402Z,86.90
2022-08-12T15:33:14.815Z,87.40
2022-08-12T15:35:52.869Z,87.70
2022-08-12T15:38:24.774Z,88.30
2022-08-12T15:40:59.104Z,89.20
2022-08-12T15:44:15.919Z,89.60
2022-08-12T15:46:17.773Z,87.60
2022-08-12T15:48:49.287Z,84.20
2022-08-12T15:51:58.155Z,85.20
2022-08-12T15:54:33.990Z,85.80
2022-08-12T15:57:07.652Z,87.20
2022-08-12T15:59:51.510Z,88.20
2022-08-12T16:02:26.744Z,87.20
2022-08-12T16:04:55.311Z,88.80
2022-08-12T16:07:32.693Z,89.30
2022-08-12T16:10:08.418Z,89.60
2022-08-12T16:12:54.716Z,90.00
2022-08-12T16:15:26.234Z,90.10
2022-08-12T16:18:18.991Z,90.30
2022-08-12T16:20:46.828Z,90.40
2022-08-12T16:23:26.584Z,90.60
2022-08-12T16:26:15.407Z,91.60
2022-08-12T16:28:49.425Z,91.60
2022-08-12T16:31:23.035Z,91.60
2022-08-12T16:33:58.633Z,92.00
2022-08-12T16:36:29.217Z,92.30
2022-08-12T16:38:57.084Z,92.40
2022-08-12T16:41:25.549Z,92.70
2022-08-12T16:43:58.453Z,94.00
2022-08-12T16:46:32.741Z,94.40
2022-08-12T16:49:09.325Z,95.60
2022-08-12T16:51:46.346Z,96.60
2022-08-12T16:54:16.743Z,96.90
2022-08-12T16:56:50.816Z,96.30
2022-08-12T16:59:26.217Z,97.10
2022-08-12T17:02:00.412Z,96.70
2022-08-12T17:04:29.098Z,96.90
2022-08-12T17:06:56.917Z,96.60
2022-08-12T17:09:26.033Z,97.40
2022-08-12T17:12:02.227Z,97.60
2022-08-12T17:14:34.331Z,97.60
2022-08-12T17:17:04.441Z,97.30
2022-08-12T17:20:29.202Z,96.40
2022-08-12T17:22:30.179Z,96.40
2022-08-12T17:25:00.168Z,95.80
2022-08-12T17:27:32.132Z,95.40
2022-08-12T17:30:05.466Z,95.20
2022-08-12T17:32:35.887Z,96.30
2022-08-12T17:35:23.190Z,96.30
2022-08-12T17:38:02.014Z,96.30
2022-08-12T17:40:36.373Z,96.60
2022-08-12T17:43:56.047Z,96.30
2022-08-12T17:45:58.784Z,95.80
2022-08-12T17:48:34.474Z,95.40
2022-08-12T17:51:06.985Z,95.50
2022-08-12T17:54:06.060Z,95.10
2022-08-12T17:56:32.037Z,95.50
2022-08-12T17:59:01.231Z,96.30
2022-08-12T18:01:34.722Z,96.00
2022-08-12T18:04:21.365Z,96.00
2022-08-12T18:06:51.787Z,96.30
2022-08-12T18:09:21.038Z,96.00
2022-08-12T18:12:11.982Z,96.10
2022-08-12T18:14:41.172Z,96.00
2022-08-12T18:17:11.939Z,95.80
2022-08-12T18:20:05.872Z,95.60
2022-08-12T18:22:32.871Z,95.90
2022-08-12T18:25:03.689Z,96.40
2022-08-12T18:27:46.733Z,96.00
2022-08-12T18:30:29.451Z,96.30
2022-08-12T18:33:05.044Z,96.70
2022-08-12T18:35:46.929Z,96.80
2022-08-12T18:38:22.208Z,96.80
2022-08-12T18:41:10.139Z,98.00
2022-08-12T18:44:00.219Z,97.60
2022-08-12T18:46:33.079Z,98.70
2022-08-12T18:49:16.936Z,98.10
2022-08-12T18:51:55.168Z,98.90
2022-08-12T18:54:25.878Z,99.20
2022-08-12T18:56:55.613Z,99.30
2022-08-12T19:00:00.998Z,99.50
2022-08-12T19:02:12.546Z,99.70
2022-08-12T19:04:52.941Z,99.90
2022-08-12T19:07:23.688Z,99.90
2022-08-12T19:09:57.845Z,99.90
2022-08-12T19:12:57.525Z,99.90
2022-08-12T19:18:01.084Z,99.90
2022-08-12T19:20:32.924Z,99.90
2022-08-12T19:23:08.006Z,99.90
2022-08-12T19:26:01.389Z,99.90
2022-08-12T19:28:34.556Z,99.90
2022-08-12T19:31:56.093Z,99.90
2022-08-12T19:37:19.927Z,99.90
2022-08-12T19:40:07.972Z,99.90
2022-08-12T19:42:42.734Z,99.90
2022-08-12T19:45:15.883Z,99.90
2022-08-12T19:47:45.886Z,99.90
2022-08-12T19:50:14.734Z,99.90
2022-08-12T19:52:52.353Z,99.90
2022-08-12T19:55:23.238Z,99.90
2022-08-12T19:58:02.376Z,99.90
2022-08-12T20:00:34.675Z,99.90
2022-08-12T20:03:04.446Z,99.90
2022-08-12T20:06:05.723Z,99.90
2022-08-12T20:08:31.640Z,99.90
2022-08-12T20:12:11.726Z,99.90
2022-08-12T20:13:58.028Z,99.90
2022-08-12T20:16:50.784Z,99.90
2022-08-12T20:19:16.759Z,99.90
2022-08-12T20:21:44.640Z,99.90
2022-08-12T20:24:15.042Z,99.90
2022-08-12T20:26:44.314Z,99.90
2022-08-12T20:29:14.864Z,99.90
2022-08-12T20:31:45.021Z,99.90
2022-08-12T20:34:12.917Z,99.90
2022-08-12T20:36:44.361Z,99.90
2022-08-12T20:39:33.857Z,99.90
2022-08-12T20:42:07.548Z,99.90
2022-08-12T20:44:40.137Z,99.90
2022-08-12T20:47:18.733Z,99.90
2022-08-12T20:49:55.284Z,99.90
2022-08-12T20:52:41.625Z,99.90
2022-08-12T20:55:15.606Z,99.90
2022-08-12T20:58:02.649Z,99.90
2022-08-12T21:00:33.169Z,99.90
2022-08-12T21:03:21.022Z,99.90
2022-08-12T21:06:12.973Z,99.90
2022-08-12T21:08:42.623Z,99.90
2022-08-12T21:11:11.834Z,99.90
2022-08-12T21:13:42.081Z,99.90
2022-08-12T21:16:11.275Z,99.90
2022-08-12T21:18:39.418Z,99.90
2022-08-12T21:21:23.185Z,99.90
2022-08-12T21:23:56.556Z,99.90
2022-08-12T21:26:28.528Z,99.90
2022-08-12T21:29:01.380Z,99.90
2022-08-12T21:32:36.495Z,99.90
2022-08-12T21:34:22.099Z,99.90
2022-08-12T21:36:54.336Z,99.90
2022-08-12T21:39:35.256Z,99.90
2022-08-12T21:42:07.411Z,99.90
2022-08-12T21:45:46.962Z,99.90
2022-08-12T21:47:28.660Z,99.90
2022-08-12T21:50:03.950Z,99.90
2022-08-12T21:52:36.278Z,99.90
2022-08-12T21:55:08.446Z,99.90
2022-08-12T21:57:53.839Z,99.90
2022-08-12T22:00:31.850Z,99.90
2022-08-12T22:04:01.490Z,99.90
2022-08-12T22:06:26.043Z,99.90
2022-08-12T22:09:03.541Z,99.90
2022-08-12T22:11:41.161Z,99.90
2022-08-12T22:14:21.989Z,99.90
2022-08-12T22:16:54.164Z,99.90
2022-08-12T22:19:22.791Z,99.90
2022-08-12T22:21:53.808Z,99.90
2022-08-12T22:24:27.196Z,99.90
2022-08-12T22:26:58.388Z,99.90
2022-08-12T22:29:44.999Z,99.90
2022-08-12T22:32:15.734Z,99.90
2022-08-12T22:34:44.467Z,99.90
2022-08-12T22:37:19.683Z,99.90
2022-08-12T22:39:49.089Z,99.90
2022-08-12T22:42:35.105Z,99.90
2022-08-12T22:45:31.111Z,99.90
2022-08-12T22:48:21.552Z,99.90
2022-08-12T22:50:59.392Z,99.90
2022-08-12T22:53:35.765Z,99.90
2022-08-12T22:56:07.011Z,99.90
2022-08-12T22:58:40.274Z,99.90
2022-08-12T23:01:10.517Z,99.90
2022-08-12T23:03:49.037Z,99.90
2022-08-12T23:06:19.922Z,99.90
2022-08-12T23:08:48.308Z,99.90
2022-08-12T23:11:17.784Z,99.90
2022-08-12T23:13:54.893Z,99.90
2022-08-12T23:16:31.264Z,99.90
2022-08-12T23:19:09.653Z,99.90
2022-08-12T23:22:03.248Z,99.90
2022-08-12T23:24:29.321Z,99.90
2022-08-12T23:27:18.170Z,99.90
2022-08-12T23:30:17.889Z,99.90
2022-08-12T23:32:37.654Z,99.90
2022-08-12T23:35:07.634Z,99.90
2022-08-12T23:37:46.620Z,99.90
2022-08-12T23:40:22.459Z,99.90
2022-08-12T23:42:54.011Z,99.90
2022-08-12T23:45:31.379Z,99.90
2022-08-12T23:48:02.151Z,99.90
2022-08-12T23:50:34.063Z,99.90
2022-08-12T23:53:05.369Z,99.90
2022-08-12T23:55:33.980Z,99.90
2022-08-12T23:58:21.277Z,99.90
